Addy, Washington
Current Conditions -  °F | °C
As of 12:53 AM on Saturday 29 Nov 2014 (Local Time) from KDEW Reporting Station
Overcast Overcast  
Wind Chill: 34°   Ceiling: 4900
Heat Index: 41°   Visibility: 10mi
Dew Point: 33°   Wind: 12mph
Humidity: 73%   Direction: 230°SW
Pressure: 29.29"   Gusts: NA
Location:  48.36°N, 117.84°W
Report Text: KDEW 290853Z AUTO 23010KT 10SM OVC049 05/01 A2929 RMK AO2 SLP920 T00500006 53019
Loading
Personal Weather Stations






























Interactive Weather Map New forecast layout! Learn more

10-Day Weather Forecast

Advertisements
Track Severe Weather on mobile